Time;durP1;ratioP1;P1;durP2;ratioP2;P2;SDS_P1;SDS_P2;PMS_P1;PMS_P2;Temp;Humidity;BMP_temperature;BMP_pressure;BME280_temperature;BME280_humidity;BME280_pressure;Samples;Min_cycle;Max_cycle;Signal;HPM_P1;HPM_P2
2023/06/22 00:01:02;;;;;;;;;;;;;;;22.06;30.64;98153.38;4976282;28;1192;-80
2023/06/22 00:03:27;;;;;;;;;;;;;;;22.12;30.28;98160.13;4976487;28;870;-80
2023/06/22 00:05:53;;;;;;;;;;;;;;;22.04;30.77;98155.88;4946154;28;1196;-80
2023/06/22 00:08:18;;;;;;;;;;;;;;;21.71;31.20;98150.22;4960416;28;817;-80
2023/06/22 00:10:44;;;;;;;;;;;;;;;21.83;31.08;98146.69;4961757;28;1258;-80
2023/06/22 00:13:09;;;;;;;;;;;;;;;21.94;30.82;98154.09;4977021;28;1966;-80
2023/06/22 00:15:36;;;;;;;;;;;;;;;22.15;30.65;98145.09;4937811;29;906;-80
2023/06/22 00:18:02;;;;;;;;;;;;;;;21.77;31.38;98145.63;4938680;29;809;-80
2023/06/22 00:20:28;;;;;;;;;;;;;;;21.96;31.14;98151.63;4932769;28;1077;-80
2023/06/22 00:22:56;;;;;;;;;;;;;;;22.06;30.82;98154.19;4980080;28;780;-80
2023/06/22 00:25:22;;;;;;;;;;;;;;;22.27;30.54;98152.84;4994957;28;835;-80
2023/06/22 00:27:48;;;;;;;;;;;;;;;22.16;30.76;98160.84;4999970;28;881;-80
2023/06/22 00:30:13;;;;;;;;;;;;;;;22.07;30.83;98161.47;4999735;28;836;-80
2023/06/22 00:32:39;;;;;;;;;;;;;;;22.21;30.50;98165.19;4972520;28;1977;-80
2023/06/22 00:35:06;;;;;;;;;;;;;;;22.05;31.17;98161.09;4960763;28;909;-80
2023/06/22 00:37:32;;;;;;;;;;;;;;;22.17;30.68;98162.44;4977345;28;859;-80
2023/06/22 00:39:58;;;;;;;;;;;;;;;22.14;30.79;98160.50;4976593;28;1153;-80
2023/06/22 00:42:24;;;;;;;;;;;;;;;22.11;30.97;98155.72;4976937;28;1111;-80
2023/06/22 00:44:50;;;;;;;;;;;;;;;22.15;30.69;98167.75;4960631;28;1088;-80
2023/06/22 00:47:17;;;;;;;;;;;;;;;22.20;30.76;98164.38;4944861;28;1288;-80
2023/06/22 00:49:42;;;;;;;;;;;;;;;22.28;30.26;98160.13;4976636;28;1333;-80
2023/06/22 00:52:13;;;;;;;;;;;;;;;22.22;30.64;98158.25;4982771;28;781;-80
2023/06/22 00:54:45;;;;;;;;;;;;;;;22.21;30.54;98173.69;4999192;28;1906;-80
2023/06/22 00:57:15;;;;;;;;;;;;;;;22.24;30.15;98170.75;4957980;29;973;-80
2023/06/22 00:59:44;;;;;;;;;;;;;;;22.27;30.47;98158.50;4957209;29;994;-80
2023/06/22 01:02:10;;;;;;;;;;;;;;;22.21;30.45;98174.47;4958068;29;878;-80
2023/06/22 01:04:35;;;;;;;;;;;;;;;22.20;30.59;98170.03;5009379;28;1281;-80
2023/06/22 01:07:05;;;;;;;;;;;;;;;22.34;30.08;98158.34;5016141;28;887;-80
2023/06/22 01:09:31;;;;;;;;;;;;;;;22.24;30.46;98170.75;4998916;28;1043;-80
2023/06/22 01:11:58;;;;;;;;;;;;;;;22.06;30.72;98159.06;5032754;28;974;-80
2023/06/22 01:14:26;;;;;;;;;;;;;;;22.32;30.54;98155.13;4972724;28;1899;-80
2023/06/22 01:16:55;;;;;;;;;;;;;;;22.07;30.67;98155.78;4942132;29;784;-80
2023/06/22 01:19:27;;;;;;;;;;;;;;;22.17;30.71;98159.59;4940939;29;858;-80
2023/06/22 01:21:52;;;;;;;;;;;;;;;22.01;31.09;98151.09;4957573;29;892;-80
2023/06/22 01:24:22;;;;;;;;;;;;;;;22.14;30.52;98159.72;4940703;29;1217;-80
2023/06/22 01:26:50;;;;;;;;;;;;;;;21.96;30.81;98154.44;4927604;29;1082;-80
2023/06/22 01:29:16;;;;;;;;;;;;;;;22.40;29.99;98154.97;4982437;28;1165;-80
2023/06/22 01:31:41;;;;;;;;;;;;;;;21.99;30.62;98157.19;4999879;28;909;-80
2023/06/22 01:34:07;;;;;;;;;;;;;;;22.19;30.18;98151.47;4982903;28;1993;-80
2023/06/22 01:36:34;;;;;;;;;;;;;;;22.27;30.23;98141.50;4983239;28;1412;-80
2023/06/22 01:39:00;;;;;;;;;;;;;;;22.06;30.75;98136.38;4995656;28;1140;-80
2023/06/22 01:41:26;;;;;;;;;;;;;;;22.32;30.31;98138.13;4948048;28;1200;-79
2023/06/22 01:43:52;;;;;;;;;;;;;;;22.14;30.35;98154.84;4979575;28;883;-80
2023/06/22 01:46:19;;;;;;;;;;;;;;;22.14;30.43;98154.03;4996288;28;1349;-80
2023/06/22 01:48:45;;;;;;;;;;;;;;;22.27;30.09;98152.84;4963220;28;928;-80
2023/06/22 01:51:10;;;;;;;;;;;;;;;22.28;29.89;98153.66;4968425;28;805;-80
2023/06/22 01:53:38;;;;;;;;;;;;;;;22.27;30.22;98152.84;4966634;28;1902;-80
2023/06/22 01:56:04;;;;;;;;;;;;;;;22.46;29.70;98153.16;4999594;28;907;-80
2023/06/22 01:58:30;;;;;;;;;;;;;;;22.15;30.23;98155.63;4981901;28;1201;-80
2023/06/22 02:00:59;;;;;;;;;;;;;;;22.30;29.77;98159.66;4989829;28;1255;-80
2023/06/22 02:03:30;;;;;;;;;;;;;;;22.25;30.07;98161.00;5004845;28;1406;-80
2023/06/22 02:06:03;;;;;;;;;;;;;;;22.05;30.25;98171.63;5022203;28;924;-80
2023/06/22 02:08:29;;;;;;;;;;;;;;;21.96;30.38;98160.91;5004587;28;1366;-80
2023/06/22 02:10:58;;;;;;;;;;;;;;;22.14;30.38;98171.84;5043306;28;1202;-80
2023/06/22 02:13:24;;;;;;;;;;;;;;;22.19;30.11;98168.47;5061551;28;1910;-80
2023/06/22 02:15:49;;;;;;;;;;;;;;;22.16;30.34;98175.00;5079420;28;1367;-80
2023/06/22 02:18:15;;;;;;;;;;;;;;;22.24;30.24;98170.75;5078603;28;1181;-80
2023/06/22 02:20:40;;;;;;;;;;;;;;;22.21;30.33;98171.63;5062798;28;1162;-80
2023/06/22 02:23:06;;;;;;;;;;;;;;;22.33;29.94;98161.63;5062272;28;1190;-80
2023/06/22 02:25:34;;;;;;;;;;;;;;;22.20;30.37;98169.25;5062741;28;1155;-80
2023/06/22 02:28:00;;;;;;;;;;;;;;;22.18;30.32;98166.88;5078542;28;1228;-79
2023/06/22 02:30:25;;;;;;;;;;;;;;;21.99;30.47;98168.53;5078821;28;802;-80
2023/06/22 02:32:58;;;;;;;;;;;;;;;22.01;30.68;98168.09;5095939;28;1969;-80
2023/06/22 02:35:27;;;;;;;;;;;;;;;22.04;30.54;98173.66;5094790;28;723;-80
2023/06/22 02:37:52;;;;;;;;;;;;;;;22.16;30.07;98180.69;5095504;28;791;-80
2023/06/22 02:40:18;;;;;;;;;;;;;;;22.20;30.37;98175.72;5061865;28;1179;-79
2023/06/22 02:42:44;;;;;;;;;;;;;;;22.05;30.58;98185.78;5079385;28;786;-80
2023/06/22 02:45:09;;;;;;;;;;;;;;;22.21;30.18;98187.84;5078068;28;1243;-80
2023/06/22 02:47:35;;;;;;;;;;;;;;;22.19;30.27;98188.31;5062566;28;1197;-80
2023/06/22 02:50:01;;;;;;;;;;;;;;;22.21;30.39;98182.19;5061715;28;1124;-80
2023/06/22 02:52:28;;;;;;;;;;;;;;;22.15;30.31;98181.94;5080367;28;1961;-80
2023/06/22 02:54:54;;;;;;;;;;;;;;;22.12;30.43;98196.97;5078778;28;742;-80
2023/06/22 02:57:20;;;;;;;;;;;;;;;21.94;30.82;98200.22;5079993;28;959;-80
2023/06/22 02:59:45;;;;;;;;;;;;;;;22.18;30.34;98195.22;5061496;28;1122;-80
2023/06/22 03:02:12;;;;;;;;;;;;;;;22.34;30.13;98198.03;5078533;28;1247;-80
2023/06/22 03:04:38;;;;;;;;;;;;;;;22.23;30.25;98191.84;5056531;28;1457;-79
2023/06/22 03:07:03;;;;;;;;;;;;;;;21.99;30.55;98187.56;5041022;28;1237;-80
2023/06/22 03:09:30;;;;;;;;;;;;;;;22.12;30.43;98185.63;5073155;28;987;-80
2023/06/22 03:11:56;;;;;;;;;;;;;;;22.24;30.21;98187.75;5057509;28;1191;-80
2023/06/22 03:14:26;;;;;;;;;;;;;;;22.22;30.24;98195.09;5040139;28;1973;-80
2023/06/22 03:16:52;;;;;;;;;;;;;;;22.32;29.94;98186.31;5057007;28;1199;-80
2023/06/22 03:19:19;;;;;;;;;;;;;;;22.07;30.03;98189.78;5056424;28;1357;-80
2023/06/22 03:21:45;;;;;;;;;;;;;;;22.13;30.23;98198.59;5040502;28;1057;-80
2023/06/22 03:24:10;;;;;;;;;;;;;;;21.98;30.49;98203.00;5055737;28;875;-80
2023/06/22 03:26:37;;;;;;;;;;;;;;;22.07;30.14;98200.31;5056761;28;1305;-80
2023/06/22 03:29:03;;;;;;;;;;;;;;;22.00;30.44;98195.63;5039673;28;1272;-80
2023/06/22 03:31:29;;;;;;;;;;;;;;;21.97;30.40;98201.41;5057178;28;1419;-80
2023/06/22 03:33:55;;;;;;;;;;;;;;;22.08;30.11;98201.94;4996438;28;1911;-80
2023/06/22 03:36:22;;;;;;;;;;;;;;;22.05;30.11;98202.78;4942194;29;1104;-80
2023/06/22 03:38:48;;;;;;;;;;;;;;;21.94;30.60;98211.56;4957237;29;830;-80
2023/06/22 03:41:14;;;;;;;;;;;;;;;22.07;30.09;98205.97;4959154;29;916;-80
2023/06/22 03:43:39;;;;;;;;;;;;;;;22.12;30.34;98202.63;4958020;29;811;-80
2023/06/22 03:46:05;;;;;;;;;;;;;;;22.22;29.98;98209.28;4910682;29;1241;-79
2023/06/22 03:48:31;;;;;;;;;;;;;;;22.25;29.81;98212.03;4957305;28;992;-80
2023/06/22 03:50:56;;;;;;;;;;;;;;;22.02;30.33;98209.34;4943452;29;1255;-79
2023/06/22 03:53:22;;;;;;;;;;;;;;;22.31;29.85;98203.78;4940978;28;1976;-80
2023/06/22 03:55:49;;;;;;;;;;;;;;;22.09;30.38;98204.31;4946488;28;1180;-80
2023/06/22 03:58:14;;;;;;;;;;;;;;;22.05;30.16;98219.81;4961375;28;1083;-80
2023/06/22 04:00:40;;;;;;;;;;;;;;;21.95;30.34;98215.19;4962298;28;932;-80
2023/06/22 04:03:07;;;;;;;;;;;;;;;21.94;30.73;98216.44;4961353;28;876;-80
2023/06/22 04:05:32;;;;;;;;;;;;;;;21.96;30.61;98219.63;4965728;28;957;-80
2023/06/22 04:07:58;;;;;;;;;;;;;;;21.92;30.43;98216.09;4942334;29;1211;-80
2023/06/22 04:10:24;;;;;;;;;;;;;;;21.92;30.91;98222.56;4931241;28;1211;-80
2023/06/22 04:12:49;;;;;;;;;;;;;;;22.19;30.44;98225.16;4988166;28;1910;-80
2023/06/22 04:15:15;;;;;;;;;;;;;;;21.98;30.68;98225.66;5024430;28;876;-80
2023/06/22 04:17:40;;;;;;;;;;;;;;;21.96;30.80;98233.78;5041994;28;1172;-80
2023/06/22 04:20:07;;;;;;;;;;;;;;;21.90;30.97;98224.22;5058484;28;856;-80
2023/06/22 04:22:32;;;;;;;;;;;;;;;22.03;30.37;98233.63;5044498;28;1278;-80
2023/06/22 04:24:58;;;;;;;;;;;;;;;22.16;30.27;98228.84;5058390;28;895;-80
2023/06/22 04:27:23;;;;;;;;;;;;;;;22.05;30.28;98231.13;5058676;28;802;-80
2023/06/22 04:29:49;;;;;;;;;;;;;;;22.01;30.65;98230.41;5041081;28;873;-80
2023/06/22 04:32:15;;;;;;;;;;;;;;;22.05;30.40;98236.81;5041275;28;869;-79
2023/06/22 04:34:40;;;;;;;;;;;;;;;22.01;30.74;98236.09;5040764;28;1914;-80
2023/06/22 04:37:06;;;;;;;;;;;;;;;22.06;30.59;98233.53;5059060;28;812;-80
2023/06/22 04:39:31;;;;;;;;;;;;;;;22.27;30.23;98243.53;5040756;28;826;-80
2023/06/22 04:42:00;;;;;;;;;;;;;;;22.16;30.17;98240.19;5059206;28;926;-80
2023/06/22 04:44:25;;;;;;;;;;;;;;;22.07;30.50;98245.66;5058337;28;807;-80
2023/06/22 04:46:53;;;;;;;;;;;;;;;22.12;30.43;98245.16;5059166;28;1177;-80
2023/06/22 04:49:19;;;;;;;;;;;;;;;21.91;30.59;98242.81;5058404;28;815;-80
2023/06/22 04:51:45;;;;;;;;;;;;;;;21.96;30.77;98245.13;5040707;28;976;-80
2023/06/22 04:54:10;;;;;;;;;;;;;;;21.98;30.32;98254.00;5040081;28;1910;-80
2023/06/22 04:56:36;;;;;;;;;;;;;;;22.07;30.39;98251.31;5058892;28;798;-80
2023/06/22 04:59:02;;;;;;;;;;;;;;;22.09;30.28;98246.81;5057964;28;719;-80
2023/06/22 05:01:28;;;;;;;;;;;;;;;22.03;30.58;98250.63;5025559;28;743;-80
2023/06/22 05:03:55;;;;;;;;;;;;;;;22.08;30.44;98247.25;5044548;28;849;-80
2023/06/22 05:06:21;;;;;;;;;;;;;;;22.20;30.07;98255.06;5027377;28;965;-80
2023/06/22 05:08:47;;;;;;;;;;;;;;;22.05;30.33;98253.81;5039070;28;1395;-80
2023/06/22 05:11:12;;;;;;;;;;;;;;;22.17;30.29;98255.94;5024310;28;869;-80
2023/06/22 05:13:38;;;;;;;;;;;;;;;22.13;30.16;98260.94;5038926;28;1905;-80
2023/06/22 05:16:03;;;;;;;;;;;;;;;22.21;30.04;98262.34;5040553;28;1201;-80
2023/06/22 05:18:29;;;;;;;;;;;;;;;22.14;30.40;98256.84;5038779;28;943;-80
2023/06/22 05:20:55;;;;;;;;;;;;;;;22.14;30.13;98256.84;5023980;28;743;-80
2023/06/22 05:23:20;;;;;;;;;;;;;;;22.08;30.28;98261.44;5022511;28;885;-80
2023/06/22 05:25:46;;;;;;;;;;;;;;;22.08;30.25;98264.25;5023620;28;974;-80
2023/06/22 05:28:12;;;;;;;;;;;;;;;22.02;30.64;98257.50;5023119;28;1161;-80
2023/06/22 05:30:37;;;;;;;;;;;;;;;22.11;30.11;98263.41;5023364;28;935;-80
2023/06/22 05:33:03;;;;;;;;;;;;;;;22.20;29.92;98262.78;5000198;28;1914;-80
2023/06/22 05:35:29;;;;;;;;;;;;;;;22.07;30.35;98263.47;5000439;28;960;-80
2023/06/22 05:37:55;;;;;;;;;;;;;;;22.06;30.26;98261.06;4999841;28;976;-80
2023/06/22 05:40:20;;;;;;;;;;;;;;;21.98;30.47;98254.00;4998328;28;1345;-80
2023/06/22 05:42:46;;;;;;;;;;;;;;;22.15;30.34;98258.44;5019639;28;927;-80
2023/06/22 05:45:11;;;;;;;;;;;;;;;22.17;30.24;98261.63;5018926;28;1026;-80
2023/06/22 05:47:37;;;;;;;;;;;;;;;21.95;30.28;98266.19;5003829;28;903;-80
2023/06/22 05:50:06;;;;;;;;;;;;;;;22.34;29.86;98251.88;5019187;28;954;-80
2023/06/22 05:52:32;;;;;;;;;;;;;;;22.41;29.72;98264.28;5020076;28;1901;-80
2023/06/22 05:54:57;;;;;;;;;;;;;;;22.21;30.03;98251.00;5002753;28;1044;-80
2023/06/22 05:57:23;;;;;;;;;;;;;;;22.03;30.07;98250.63;5003170;28;921;-79
2023/06/22 05:59:49;;;;;;;;;;;;;;;22.14;30.33;98259.69;5018869;28;1052;-79
2023/06/22 06:02:14;;;;;;;;;;;;;;;22.18;30.30;98257.56;5019589;28;928;-80
2023/06/22 06:04:40;;;;;;;;;;;;;;;22.10;30.34;98261.78;5001906;28;869;-80
2023/06/22 06:07:05;;;;;;;;;;;;;;;21.99;30.65;98252.75;5016435;28;917;-80
2023/06/22 06:09:31;;;;;;;;;;;;;;;21.96;30.49;98256.44;5023498;28;813;-80
2023/06/22 06:11:56;;;;;;;;;;;;;;;22.20;30.22;98257.91;5042620;28;1201;-80
2023/06/22 06:14:22;;;;;;;;;;;;;;;22.24;30.26;98260.66;5059759;28;1984;-81
2023/06/22 06:16:48;;;;;;;;;;;;;;;22.13;30.23;98258.09;5061964;28;909;-80
2023/06/22 06:19:14;;;;;;;;;;;;;;;22.06;30.51;98261.84;5026508;28;1124;-80
2023/06/22 06:21:39;;;;;;;;;;;;;;;22.28;30.04;98262.19;5061677;28;727;-80
2023/06/22 06:24:05;;;;;;;;;;;;;;;22.40;29.99;98262.69;5043199;28;893;-80
2023/06/22 06:26:32;;;;;;;;;;;;;;;22.45;29.91;98270.66;5061208;28;770;-80
2023/06/22 06:28:59;;;;;;;;;;;;;;;22.19;30.06;98264.03;5060296;28;869;-80
2023/06/22 06:31:27;;;;;;;;;;;;;;;21.98;30.54;98256.81;5043037;28;876;-81
2023/06/22 06:33:53;;;;;;;;;;;;;;;22.21;30.04;98264.38;5043208;28;1914;-80
2023/06/22 06:36:19;;;;;;;;;;;;;;;22.00;30.33;98271.34;5018954;28;1133;-80
2023/06/22 06:38:46;;;;;;;;;;;;;;;22.14;30.46;98278.72;5018321;28;932;-80
2023/06/22 06:41:13;;;;;;;;;;;;;;;22.21;30.30;98273.66;5002646;28;917;-80
2023/06/22 06:43:38;;;;;;;;;;;;;;;22.13;30.37;98265.81;5001836;28;972;-80
2023/06/22 06:46:04;;;;;;;;;;;;;;;22.26;30.28;98266.69;5018845;28;1086;-80
2023/06/22 06:48:29;;;;;;;;;;;;;;;21.98;30.46;98271.00;5001617;28;875;-80
2023/06/22 06:50:55;;;;;;;;;;;;;;;22.13;30.53;98272.28;5019323;28;1116;-80
2023/06/22 06:53:20;;;;;;;;;;;;;;;22.37;30.14;98275.69;5001136;28;1978;-80
2023/06/22 06:55:46;;;;;;;;;;;;;;;22.08;30.54;98275.59;4982572;28;1305;-80
2023/06/22 06:58:13;;;;;;;;;;;;;;;22.08;30.34;98276.41;4997304;28;934;-80
2023/06/22 07:00:38;;;;;;;;;;;;;;;22.40;29.99;98291.03;4998728;28;907;-80
2023/06/22 07:03:04;;;;;;;;;;;;;;;22.17;30.07;98275.78;4982049;28;839;-80
2023/06/22 07:05:30;;;;;;;;;;;;;;;22.10;30.51;98273.13;4982441;28;914;-80
2023/06/22 07:07:55;;;;;;;;;;;;;;;22.05;30.43;98287.81;4988687;28;1009;-81
2023/06/22 07:10:21;;;;;;;;;;;;;;;21.95;30.90;98283.19;4981929;28;892;-80
2023/06/22 07:12:46;;;;;;;;;;;;;;;22.30;30.08;98281.56;4981953;28;1914;-80
2023/06/22 07:15:12;;;;;;;;;;;;;;;22.23;30.49;98287.41;4998182;28;1254;-80
2023/06/22 07:17:40;;;;;;;;;;;;;;;22.10;30.55;98285.28;4959603;28;1224;-80
2023/06/22 07:20:09;;;;;;;;;;;;;;;22.47;30.08;98291.66;4958683;29;1459;-80
2023/06/22 07:22:35;;;;;;;;;;;;;;;22.43;30.02;98290.13;4959375;29;966;-81
2023/06/22 07:25:01;;;;;;;;;;;;;;;22.17;30.65;98289.97;4958337;28;1045;-80
2023/06/22 07:27:26;;;;;;;;;;;;;;;22.36;30.29;98286.25;4906291;29;909;-80
2023/06/22 07:29:52;;;;;;;;;;;;;;;22.43;29.97;98285.25;4871456;29;935;-81
2023/06/22 07:32:17;;;;;;;;;;;;;;;22.19;30.65;98286.72;4887479;29;1039;-80
2023/06/22 07:34:43;;;;;;;;;;;;;;;22.44;30.18;98286.09;4886527;29;1902;-80
2023/06/22 07:37:09;;;;;;;;;;;;;;;22.28;30.47;98284.84;4887489;29;926;-81
2023/06/22 07:39:34;;;;;;;;;;;;;;;22.35;30.26;98279.00;4902034;29;1045;-81
2023/06/22 07:42:00;;;;;;;;;;;;;;;20.94;30.02;98038.44;4921924;29;1121;-79
2023/06/22 07:44:25;;;;;;;;;;;;;;;22.28;30.37;98290.53;4905247;29;974;-79
2023/06/22 07:46:51;;;;;;;;;;;;;;;22.26;30.25;98287.31;4906257;29;1068;-79
2023/06/22 07:49:17;;;;;;;;;;;;;;;22.28;30.42;98296.19;4935000;29;1302;-79
2023/06/22 07:51:42;;;;;;;;;;;;;;;22.20;30.73;98297.59;4960153;29;1006;-79
2023/06/22 07:54:08;;;;;;;;;;;;;;;22.05;30.75;98293.47;4973460;28;1910;-79
2023/06/22 07:56:34;;;;;;;;;;;;;;;22.39;30.12;98295.91;4979240;28;798;-80
2023/06/22 07:59:01;;;;;;;;;;;;;;;22.22;30.51;98303.59;4978538;28;967;-79
2023/06/22 08:01:27;;;;;;;;;;;;;;;22.28;30.35;98289.72;4978507;28;805;-79
2023/06/22 08:03:52;;;;;;;;;;;;;;;22.30;30.25;98288.03;4981761;28;784;-80
2023/06/22 08:06:18;;;;;;;;;;;;;;;22.32;30.52;98284.75;5002002;28;832;-80
2023/06/22 08:08:43;;;;;;;;;;;;;;;22.30;30.61;98295.75;5000367;28;854;-80
2023/06/22 08:11:09;;;;;;;;;;;;;;;21.83;31.21;98288.31;5019049;28;817;-80
2023/06/22 08:13:34;;;;;;;;;;;;;;;22.36;30.52;98280.56;5030532;28;1910;-79
2023/06/22 08:16:00;;;;;;;;;;;;;;;22.28;30.43;98290.53;5042210;28;1131;-80
2023/06/22 08:18:25;;;;;;;;;;;;;;;22.40;30.36;98293.88;5024008;28;1239;-80
2023/06/22 08:20:51;;;;;;;;;;;;;;;22.31;30.45;98278.28;5042040;28;770;-80
2023/06/22 08:23:16;;;;;;;;;;;;;;;22.03;31.08;98274.09;5040838;28;801;-80
2023/06/22 08:25:42;;;;;;;;;;;;;;;21.97;31.02;98280.72;5059513;28;900;-80
2023/06/22 08:28:08;;;;;;;;;;;;;;;22.01;31.00;98270.09;5024332;28;828;-80
2023/06/22 08:30:33;;;;;;;;;;;;;;;22.11;30.71;98280.41;5041975;28;1166;-80
2023/06/22 08:32:59;;;;;;;;;;;;;;;22.31;30.43;98278.28;5024951;28;2239;-80
2023/06/22 08:35:24;;;;;;;;;;;;;;;22.21;30.72;98279.34;5042484;28;877;-80
2023/06/22 08:37:54;;;;;;;;;;;;;;;22.29;30.20;98279.97;5044572;28;842;-80
2023/06/22 08:40:19;;;;;;;;;;;;;;;22.47;30.23;98280.31;5045922;28;864;-80
2023/06/22 08:42:45;;;;;;;;;;;;;;;22.36;30.18;98288.28;5062646;28;912;-80
2023/06/22 08:45:11;;;;;;;;;;;;;;;22.21;30.59;98289.88;5061903;28;1032;-79
2023/06/22 08:47:36;;;;;;;;;;;;;;;22.23;30.44;98282.53;5062301;28;1393;-80
2023/06/22 08:50:03;;;;;;;;;;;;;;;22.27;30.57;98288.09;5061959;28;866;-80
2023/06/22 08:52:28;;;;;;;;;;;;;;;22.24;30.57;98284.13;5045405;28;751;-80
2023/06/22 08:54:54;;;;;;;;;;;;;;;22.28;30.70;98284.84;5044213;28;1981;-79
2023/06/22 08:57:20;;;;;;;;;;;;;;;22.32;30.53;98291.22;5062678;28;834;-79
2023/06/22 08:59:46;;;;;;;;;;;;;;;22.32;30.46;98285.53;5044728;28;937;-80
2023/06/22 09:02:11;;;;;;;;;;;;;;;22.19;30.79;98275.38;5028163;28;1136;-79
2023/06/22 09:04:37;;;;;;;;;;;;;;;22.35;30.58;98267.66;5027979;28;875;-80
2023/06/22 09:07:02;;;;;;;;;;;;;;;22.43;30.23;98273.13;5000726;28;1173;-80
2023/06/22 09:09:28;;;;;;;;;;;;;;;22.14;30.86;98268.19;5000746;28;1013;-80
2023/06/22 09:11:53;;;;;;;;;;;;;;;22.31;30.68;98278.28;4984966;28;994;-80
2023/06/22 09:14:18;;;;;;;;;;;;;;;22.28;30.69;98273.50;4967660;28;1907;-80
2023/06/22 09:16:44;;;;;;;;;;;;;;;22.47;30.55;98273.84;4980986;28;975;-80
2023/06/22 09:19:10;;;;;;;;;;;;;;;22.25;30.71;98280.06;4964612;28;1120;-80
2023/06/22 09:21:35;;;;;;;;;;;;;;;22.21;30.76;98279.34;4981759;28;1011;-80
2023/06/22 09:24:01;;;;;;;;;;;;;;;22.25;30.55;98280.06;4980541;28;941;-80
2023/06/22 09:26:26;;;;;;;;;;;;;;;22.27;30.56;98283.22;4964811;28;1196;-79
2023/06/22 09:28:52;;;;;;;;;;;;;;;22.42;30.46;98286.50;4980861;28;958;-80
2023/06/22 09:31:20;;;;;;;;;;;;;;;22.41;30.26;98275.63;4981485;28;1002;-80
2023/06/22 09:33:47;;;;;;;;;;;;;;;22.49;30.29;98283.50;4980599;28;1911;-80
2023/06/22 09:36:12;;;;;;;;;;;;;;;22.31;30.39;98283.16;4964511;28;1289;-80
2023/06/22 09:38:38;;;;;;;;;;;;;;;22.06;30.96;98284.53;5007618;28;1273;-80
2023/06/22 09:41:03;;;;;;;;;;;;;;;22.19;30.57;98284.66;5007464;28;805;-80
2023/06/22 09:43:29;;;;;;;;;;;;;;;22.24;30.62;98284.13;5021534;28;823;-80
2023/06/22 09:45:55;;;;;;;;;;;;;;;22.36;30.46;98277.75;5023422;28;1208;-80
2023/06/22 09:48:20;;;;;;;;;;;;;;;22.44;30.37;98288.94;4996532;28;1235;-80
2023/06/22 09:50:47;;;;;;;;;;;;;;;22.00;31.14;98280.63;5004032;28;1473;-80
2023/06/22 09:53:13;;;;;;;;;;;;;;;22.14;30.86;98282.34;5018610;28;1980;-80
2023/06/22 09:55:38;;;;;;;;;;;;;;;22.30;30.68;98288.03;5003219;28;1394;-80
2023/06/22 09:58:04;;;;;;;;;;;;;;;22.22;30.73;98278.09;5002515;28;847;-80
2023/06/22 10:00:29;;;;;;;;;;;;;;;22.24;30.62;98284.13;4986949;28;1475;-80
2023/06/22 10:02:55;;;;;;;;;;;;;;;22.27;30.55;98285.28;4986197;28;1392;-80
2023/06/22 10:05:21;;;;;;;;;;;;;;;22.14;30.86;98290.88;5005110;28;1183;-80
2023/06/22 10:07:47;;;;;;;;;;;;;;;22.36;30.45;98289.09;4987171;28;907;-80
2023/06/22 10:10:12;;;;;;;;;;;;;;;22.40;30.51;98285.38;5028327;28;1145;-79
2023/06/22 10:12:41;;;;;;;;;;;;;;;22.47;30.26;98296.53;4995608;28;1314;-80
2023/06/22 10:15:07;;;;;;;;;;;;;;;22.44;30.33;98289.72;5012849;28;1589;-80
2023/06/22 10:17:32;;;;;;;;;;;;;;;22.39;30.16;98289.47;5003806;28;1159;-79
2023/06/22 10:19:57;;;;;;;;;;;;;;;22.26;30.74;98290.16;5038012;28;921;-80
2023/06/22 10:22:23;;;;;;;;;;;;;;;22.36;30.71;98285.47;5022944;28;951;-80
2023/06/22 10:24:48;;;;;;;;;;;;;;;22.39;30.42;98280.94;5041196;28;921;-80
2023/06/22 10:27:14;;;;;;;;;;;;;;;21.07;30.51;98070.44;5060526;28;961;-80
2023/06/22 10:29:39;;;;;;;;;;;;;;;22.25;30.86;98294.22;5043289;28;925;-79
2023/06/22 10:32:05;;;;;;;;;;;;;;;22.18;31.00;98297.25;5060698;28;1134;-79
2023/06/22 10:34:31;;;;;;;;;;;;;;;22.20;30.98;98294.75;5060425;28;1909;-80
2023/06/22 10:36:56;;;;;;;;;;;;;;;22.23;30.70;98293.88;5060098;28;750;-80
2023/06/22 10:39:22;;;;;;;;;;;;;;;22.27;30.54;98288.91;5058829;28;885;-79
2023/06/22 10:41:47;;;;;;;;;;;;;;;22.23;30.92;98290.25;5059409;28;926;-79
2023/06/22 10:44:13;;;;;;;;;;;;;;;22.35;30.57;98284.66;5059290;28;948;-80
2023/06/22 10:46:38;;;;;;;;;;;;;;;22.58;30.25;98275.16;5059654;28;1183;-80
2023/06/22 10:49:04;;;;;;;;;;;;;;;22.39;30.73;98281.75;5059291;28;1205;-80
2023/06/22 10:51:31;;;;;;;;;;;;;;;22.48;30.54;98278.25;5060131;28;1226;-82
2023/06/22 10:53:56;;;;;;;;;;;;;;;22.46;30.29;98277.91;5043920;28;1922;-79
2023/06/22 10:56:22;;;;;;;;;;;;;;;22.25;30.82;98268.72;5062537;28;902;-80
2023/06/22 10:58:47;;;;;;;;;;;;;;;22.23;31.05;98274.03;5059172;28;995;-80
2023/06/22 11:01:13;;;;;;;;;;;;;;;22.39;30.72;98261.09;5060843;28;995;-80
2023/06/22 11:03:39;;;;;;;;;;;;;;;22.34;30.76;98265.28;5059777;28;714;-80
2023/06/22 11:06:04;;;;;;;;;;;;;;;22.58;30.41;98258.13;5044466;28;901;-80
2023/06/22 11:08:30;;;;;;;;;;;;;;;22.39;30.65;98256.22;5042614;28;908;-80
2023/06/22 11:10:55;;;;;;;;;;;;;;;22.26;30.95;98258.97;5060824;28;1277;-80
2023/06/22 11:13:21;;;;;;;;;;;;;;;22.25;31.15;98265.88;5060352;28;1973;-80
2023/06/22 11:15:46;;;;;;;;;;;;;;;22.27;30.98;98265.44;5044284;28;837;-80
2023/06/22 11:18:12;;;;;;;;;;;;;;;22.33;31.03;98258.00;5059656;28;818;-81
2023/06/22 11:20:40;;;;;;;;;;;;;;;22.44;30.78;98263.41;5060878;28;890;-81
2023/06/22 11:23:06;;;;;;;;;;;;;;;22.67;30.14;98260.34;5059442;28;886;-81
2023/06/22 11:25:32;;;;;;;;;;;;;;;22.40;30.83;98257.03;5043929;28;1148;-81
2023/06/22 11:27:57;;;;;;;;;;;;;;;22.23;31.05;98259.88;5059363;28;1140;-81
2023/06/22 11:30:23;;;;;;;;;;;;;;;22.40;30.47;98268.38;5053995;28;1318;-81
2023/06/22 11:32:48;;;;;;;;;;;;;;;22.41;30.77;98269.94;5060255;28;1983;-81
2023/06/22 11:35:14;;;;;;;;;;;;;;;22.38;30.69;98271.63;5034163;28;1331;-80
2023/06/22 11:37:39;;;;;;;;;;;;;;;22.23;31.00;98271.22;5049946;28;1332;-81
2023/06/22 11:40:06;;;;;;;;;;;;;;;22.36;30.64;98266.41;5033694;28;1325;-81
2023/06/22 11:42:32;;;;;;;;;;;;;;;22.28;30.81;98272.72;5027143;28;1227;-81
2023/06/22 11:44:58;;;;;;;;;;;;;;;22.48;30.34;98266.91;5052992;28;1268;-81
2023/06/22 11:47:23;;;;;;;;;;;;;;;22.56;30.14;98254.16;5012636;28;1352;-80
2023/06/22 11:49:48;;;;;;;;;;;;;;;22.38;30.53;98250.97;5007935;28;1286;-80
2023/06/22 11:52:14;;;;;;;;;;;;;;;22.44;30.49;98281.22;5006828;28;1305;-80
2023/06/22 11:54:39;;;;;;;;;;;;;;;22.46;30.61;98258.88;4998850;28;1886;-80
2023/06/22 11:57:05;;;;;;;;;;;;;;;22.23;30.80;98259.88;4999833;28;894;-80
2023/06/22 11:59:30;;;;;;;;;;;;;;;22.52;30.61;98259.91;5014805;28;971;-80
2023/06/22 12:01:58;;;;;;;;;;;;;;;22.50;30.44;98265.25;4999739;28;880;-80
2023/06/22 12:04:23;;;;;;;;;;;;;;;22.36;30.81;98252.22;5014691;28;793;-80
2023/06/22 12:06:49;;;;;;;;;;;;;;;22.25;30.88;98263.06;4999281;28;799;-80
2023/06/22 12:09:14;;;;;;;;;;;;;;;22.14;31.07;98251.19;5014941;28;978;-80
2023/06/22 12:11:40;;;;;;;;;;;;;;;22.40;30.58;98257.03;4999029;28;1086;-80
2023/06/22 12:14:05;;;;;;;;;;;;;;;22.27;30.79;98254.09;4998045;28;1906;-80
2023/06/22 12:16:31;;;;;;;;;;;;;;;22.40;30.77;98242.84;5015501;28;1006;-80
2023/06/22 12:18:56;;;;;;;;;;;;;;;22.05;31.24;98251.75;5021337;28;941;-80
2023/06/22 12:21:22;;;;;;;;;;;;;;;22.30;30.89;98254.00;5040437;28;829;-80
2023/06/22 12:23:47;;;;;;;;;;;;;;;22.33;30.83;98253.13;5039571;28;750;-80
2023/06/22 12:26:12;;;;;;;;;;;;;;;22.45;30.73;98247.97;5023937;28;865;-80
2023/06/22 12:28:38;;;;;;;;;;;;;;;22.52;30.52;98247.78;5005477;28;909;-80
2023/06/22 12:31:03;;;;;;;;;;;;;;;22.31;30.99;98249.13;5041906;28;799;-80
2023/06/22 12:33:30;;;;;;;;;;;;;;;22.41;30.65;98250.09;5005190;28;1887;-80
2023/06/22 12:35:56;;;;;;;;;;;;;;;22.38;30.80;98248.16;5008002;28;1014;-80
2023/06/22 12:38:21;;;;;;;;;;;;;;;22.19;31.19;98247.81;5005243;28;1341;-80
2023/06/22 12:40:49;;;;;;;;;;;;;;;22.23;30.85;98253.41;5041340;28;880;-80
2023/06/22 12:43:14;;;;;;;;;;;;;;;22.25;30.90;98248.88;5021859;28;1032;-80
2023/06/22 12:45:40;;;;;;;;;;;;;;;22.44;30.34;98252.84;5022653;28;1189;-80
2023/06/22 12:48:06;;;;;;;;;;;;;;;22.44;30.53;98247.19;5039133;28;857;-80
2023/06/22 12:50:31;;;;;;;;;;;;;;;22.21;31.04;98253.03;5040547;28;977;-80
2023/06/22 12:52:57;;;;;;;;;;;;;;;22.14;31.10;98251.19;5022353;28;1910;-80
2023/06/22 12:55:22;;;;;;;;;;;;;;;22.18;31.33;98251.91;5022822;28;825;-80